createdAt,value
2024-04-12T00:01:43.679Z,8.95
2024-04-12T00:04:10.686Z,9.06
2024-04-12T00:06:40.506Z,8.88
2024-04-12T00:09:10.700Z,8.92
2024-04-12T00:11:40.664Z,8.87
2024-04-12T00:14:09.318Z,8.87
2024-04-12T00:16:39.576Z,8.82
2024-04-12T00:19:13.715Z,8.82
2024-04-12T00:21:42.766Z,8.87
2024-04-12T00:24:12.507Z,8.72
2024-04-12T00:26:43.748Z,8.72
2024-04-12T00:29:32.908Z,8.70
2024-04-12T00:32:06.782Z,8.77
2024-04-12T00:34:39.822Z,8.60
2024-04-12T00:37:16.649Z,8.55
2024-04-12T00:39:49.142Z,8.63
2024-04-12T00:42:27.308Z,8.53
2024-04-12T00:44:55.848Z,8.53
2024-04-12T00:47:23.162Z,8.50
2024-04-12T00:49:53.033Z,8.44
2024-04-12T00:52:29.481Z,8.40
2024-04-12T00:55:08.821Z,8.47
2024-04-12T00:57:39.427Z,8.33
2024-04-12T01:00:10.884Z,8.39
2024-04-12T01:02:40.764Z,8.48
2024-04-12T01:05:12.278Z,8.41
2024-04-12T01:07:49.916Z,8.29
2024-04-12T01:10:22.627Z,8.22
2024-04-12T01:12:49.568Z,8.27
2024-04-12T01:15:20.435Z,8.27
2024-04-12T01:17:48.354Z,8.29
2024-04-12T01:20:17.078Z,8.23
2024-04-12T01:22:46.721Z,8.27
2024-04-12T01:25:14.715Z,8.27
2024-04-12T01:27:41.839Z,8.21
2024-04-12T01:30:08.886Z,8.17
2024-04-12T01:32:36.405Z,8.14
2024-04-12T01:35:04.813Z,8.15
2024-04-12T01:37:32.312Z,8.16
2024-04-12T01:40:03.961Z,8.07
2024-04-12T01:42:31.711Z,7.96
2024-04-12T01:45:17.439Z,8.05
2024-04-12T01:47:44.818Z,8.09
2024-04-12T01:50:13.961Z,8.12
2024-04-12T01:52:57.050Z,8.23
2024-04-12T01:55:24.600Z,8.06
2024-04-12T01:57:54.759Z,8.06
2024-04-12T02:00:22.005Z,7.99
2024-04-12T02:02:53.163Z,7.83
2024-04-12T02:05:30.218Z,7.84
2024-04-12T02:07:57.515Z,7.98
2024-04-12T02:10:24.407Z,7.97
2024-04-12T02:12:55.149Z,7.94
2024-04-12T02:15:26.850Z,7.93
2024-04-12T02:17:59.981Z,7.99
2024-04-12T02:20:35.466Z,7.83
2024-04-12T02:23:06.218Z,7.84
2024-04-12T02:25:42.971Z,7.80
2024-04-12T02:28:13.334Z,7.87
2024-04-12T02:30:45.125Z,7.86
2024-04-12T02:33:12.948Z,7.88
2024-04-12T02:35:42.939Z,7.86
2024-04-12T02:38:17.078Z,7.94
2024-04-12T02:40:44.339Z,7.92
2024-04-12T02:43:11.589Z,7.90
2024-04-12T02:45:38.524Z,7.84
2024-04-12T02:48:05.742Z,7.77
2024-04-12T02:50:32.820Z,7.84
2024-04-12T02:53:05.024Z,7.76
2024-04-12T02:55:32.151Z,7.80
2024-04-12T02:57:59.189Z,7.74
2024-04-12T03:00:27.465Z,7.69
2024-04-12T03:02:54.529Z,7.65
2024-04-12T03:05:21.564Z,7.84
2024-04-12T03:07:48.486Z,7.95
2024-04-12T03:10:19.951Z,8.08
2024-04-12T03:12:47.429Z,8.08
2024-04-12T03:15:16.194Z,8.02
2024-04-12T03:17:48.134Z,8.06
2024-04-12T03:20:19.775Z,7.94
2024-04-12T03:22:46.847Z,7.83
2024-04-12T03:25:13.779Z,7.72
2024-04-12T03:27:41.032Z,7.70
2024-04-12T03:30:15.532Z,7.88
2024-04-12T03:32:45.809Z,7.73
2024-04-12T03:35:14.045Z,7.56
2024-04-12T03:37:41.035Z,7.49
2024-04-12T03:40:18.500Z,7.65
2024-04-12T03:42:45.969Z,7.70
2024-04-12T03:45:15.978Z,7.73
2024-04-12T03:47:46.028Z,7.56
2024-04-12T03:50:17.136Z,7.49
2024-04-12T03:52:46.942Z,7.54
2024-04-12T03:55:13.882Z,7.46
2024-04-12T03:57:40.850Z,7.40
2024-04-12T04:00:12.359Z,7.36
2024-04-12T04:02:40.834Z,7.35
2024-04-12T04:05:17.444Z,7.25
2024-04-12T04:07:48.096Z,7.33
2024-04-12T04:10:22.110Z,7.27
2024-04-12T04:12:50.731Z,7.32
2024-04-12T04:15:17.907Z,7.16
2024-04-12T04:17:50.676Z,7.24
2024-04-12T04:20:18.495Z,7.24
2024-04-12T04:22:50.562Z,7.22
2024-04-12T04:25:20.425Z,7.17
2024-04-12T04:27:47.682Z,7.20
2024-04-12T04:30:19.447Z,7.26
2024-04-12T04:32:47.138Z,7.18
2024-04-12T04:35:14.765Z,7.29
2024-04-12T04:37:42.124Z,7.42
2024-04-12T04:40:18.070Z,7.53
2024-04-12T04:42:47.048Z,7.59
2024-04-12T04:45:19.082Z,7.54
2024-04-12T04:47:46.370Z,7.69
2024-04-12T04:50:18.432Z,7.77
2024-04-12T04:52:48.243Z,7.88
2024-04-12T04:55:15.241Z,7.91
2024-04-12T04:57:45.394Z,8.04
2024-04-12T05:00:19.833Z,8.15
2024-04-12T05:02:55.464Z,8.22
2024-04-12T05:05:29.387Z,8.39
2024-04-12T05:07:57.451Z,8.41
2024-04-12T05:10:25.894Z,8.50
2024-04-12T05:12:52.849Z,8.61
2024-04-12T05:15:39.729Z,8.58
2024-04-12T05:18:06.849Z,8.83
2024-04-12T05:20:40.615Z,8.88
2024-04-12T05:23:09.704Z,8.90
2024-04-12T05:25:36.883Z,8.94
2024-04-12T05:28:08.127Z,9.10
2024-04-12T05:30:38.419Z,9.18
2024-04-12T05:33:05.829Z,9.34
2024-04-12T05:35:32.848Z,9.43
2024-04-12T05:38:02.846Z,9.37
2024-04-12T05:40:30.013Z,9.48
2024-04-12T05:42:56.932Z,9.62
2024-04-12T05:45:23.984Z,9.70
2024-04-12T05:47:56.011Z,9.70
2024-04-12T05:50:23.037Z,9.92
2024-04-12T05:52:53.990Z,10.05
2024-04-12T05:55:20.916Z,9.97
2024-04-12T05:57:48.595Z,10.09
2024-04-12T06:00:16.170Z,9.78
2024-04-12T06:02:45.220Z,9.97
2024-04-12T06:05:19.563Z,10.16
2024-04-12T06:07:48.643Z,10.09
2024-04-12T06:10:18.398Z,10.18
2024-04-12T06:12:47.126Z,10.25
2024-04-12T06:15:17.287Z,10.30
2024-04-12T06:17:44.674Z,10.46
2024-04-12T06:20:11.673Z,10.64
2024-04-12T06:22:38.583Z,10.64
2024-04-12T06:25:09.463Z,10.87
2024-04-12T06:27:36.467Z,10.94
2024-04-12T06:30:04.105Z,11.09
2024-04-12T06:32:31.079Z,11.19
2024-04-12T06:34:58.698Z,11.42
2024-04-12T06:37:25.608Z,11.57
2024-04-12T06:39:57.064Z,11.53
2024-04-12T06:42:24.196Z,11.64
2024-04-12T06:44:51.174Z,11.84
2024-04-12T06:47:21.068Z,11.91
2024-04-12T06:49:48.074Z,12.26
2024-04-12T06:52:21.401Z,12.23
2024-04-12T06:54:48.396Z,12.18
2024-04-12T06:57:19.408Z,12.41
2024-04-12T06:59:54.563Z,12.45
2024-04-12T07:02:25.652Z,12.79
2024-04-12T07:04:56.152Z,13.30
2024-04-12T07:07:25.827Z,12.91
2024-04-12T07:09:59.200Z,13.22
2024-04-12T07:12:28.659Z,13.54
2024-04-12T07:14:55.902Z,13.57
2024-04-12T07:17:24.388Z,13.58
2024-04-12T07:19:51.647Z,14.00
2024-04-12T07:22:20.190Z,14.23
2024-04-12T07:24:54.146Z,13.97
2024-04-12T07:27:25.155Z,14.06
2024-04-12T07:29:52.219Z,14.11
2024-04-12T07:32:23.375Z,14.52
2024-04-12T07:34:50.574Z,14.65
2024-04-12T07:37:33.061Z,14.88
2024-04-12T07:40:19.085Z,15.08
2024-04-12T07:42:47.278Z,14.77
2024-04-12T07:45:18.440Z,15.00
2024-04-12T07:47:55.226Z,14.90
2024-04-12T07:50:32.958Z,14.80
2024-04-12T07:52:59.938Z,15.07
2024-04-12T07:55:26.891Z,14.65
2024-04-12T07:57:53.977Z,14.67
2024-04-12T08:00:36.431Z,14.69
2024-04-12T08:03:07.900Z,14.68
2024-04-12T08:05:43.453Z,15.02
2024-04-12T08:08:15.905Z,15.15
2024-04-12T08:10:43.811Z,15.64
2024-04-12T08:13:24.310Z,16.71
2024-04-12T08:15:53.001Z,17.43
2024-04-12T08:18:22.200Z,17.24
2024-04-12T08:20:49.362Z,17.05
2024-04-12T08:23:19.183Z,16.98
2024-04-12T08:25:49.787Z,17.00
2024-04-12T08:28:17.473Z,17.80
2024-04-12T08:30:53.205Z,18.21
2024-04-12T08:33:26.085Z,17.49
2024-04-12T08:35:58.950Z,17.27
2024-04-12T08:38:25.945Z,16.77
2024-04-12T08:40:53.776Z,17.00
2024-04-12T08:43:21.136Z,17.26
2024-04-12T08:45:49.283Z,17.25
2024-04-12T08:48:17.187Z,17.43
2024-04-12T08:50:49.552Z,17.45
2024-04-12T08:53:18.817Z,17.20
2024-04-12T08:55:46.560Z,17.26
2024-04-12T08:58:21.633Z,17.35
2024-04-12T09:00:48.801Z,17.37
2024-04-12T09:03:26.852Z,17.73
2024-04-12T09:05:54.788Z,17.69
2024-04-12T09:08:23.583Z,18.22
2024-04-12T09:10:54.635Z,18.41
2024-04-12T09:13:22.645Z,18.96
2024-04-12T09:15:51.845Z,19.82
2024-04-12T09:18:27.510Z,20.17
2024-04-12T09:21:04.089Z,19.03
2024-04-12T09:23:35.004Z,19.02
2024-04-12T09:26:22.139Z,18.42
2024-04-12T09:28:49.442Z,18.26
2024-04-12T09:31:35.173Z,18.57
2024-04-12T09:34:22.750Z,19.14
2024-04-12T09:37:03.453Z,19.28
2024-04-12T09:39:59.016Z,19.80
2024-04-12T09:42:46.302Z,19.32
2024-04-12T09:45:18.243Z,19.56
2024-04-12T09:48:04.837Z,19.50
2024-04-12T09:50:50.585Z,19.90
2024-04-12T09:53:36.121Z,20.30
2024-04-12T09:56:28.266Z,19.98
2024-04-12T09:59:18.250Z,19.97
2024-04-12T10:02:03.911Z,19.94
2024-04-12T10:04:52.361Z,20.65
2024-04-12T10:07:39.949Z,20.64
2024-04-12T10:10:26.423Z,20.34
2024-04-12T10:13:12.506Z,20.80
2024-04-12T10:15:57.938Z,20.25
2024-04-12T10:18:46.979Z,20.96
2024-04-12T10:21:34.569Z,20.96
2024-04-12T10:24:23.192Z,21.02
2024-04-12T10:27:08.753Z,20.87
2024-04-12T10:29:54.347Z,20.98
2024-04-12T10:32:40.014Z,20.94
2024-04-12T10:35:25.532Z,23.15
2024-04-12T10:37:52.470Z,28.66
2024-04-12T10:40:22.937Z,35.38
2024-04-12T10:42:53.362Z,39.67
2024-04-12T10:45:20.484Z,37.86
2024-04-12T10:47:47.715Z,37.71
2024-04-12T10:50:14.978Z,35.96
2024-04-12T10:52:44.034Z,39.81
2024-04-12T10:55:10.943Z,40.29
2024-04-12T10:57:41.580Z,40.52
2024-04-12T11:00:16.330Z,40.31
2024-04-12T11:02:53.907Z,40.03
2024-04-12T11:05:34.534Z,39.80
2024-04-12T11:08:12.347Z,43.16
2024-04-12T11:10:56.487Z,38.99
2024-04-12T11:13:30.277Z,39.03
2024-04-12T11:15:57.263Z,39.34
2024-04-12T11:18:42.830Z,38.76
2024-04-12T11:21:28.434Z,35.89
2024-04-12T11:24:20.132Z,37.44
2024-04-12T11:27:06.017Z,41.20
2024-04-12T11:29:51.919Z,38.57
2024-04-12T11:32:19.568Z,43.49
2024-04-12T11:34:47.279Z,38.68
2024-04-12T11:37:16.658Z,41.18
2024-04-12T11:39:43.686Z,38.43
2024-04-12T11:42:19.701Z,40.68
2024-04-12T11:44:49.074Z,40.59
2024-04-12T11:47:17.499Z,38.57
2024-04-12T11:49:46.491Z,37.46
2024-04-12T11:52:19.796Z,36.76
2024-04-12T11:54:54.203Z,35.74
2024-04-12T11:57:24.834Z,39.90
2024-04-12T12:00:01.513Z,37.01
2024-04-12T12:02:33.561Z,35.52
2024-04-12T12:05:00.870Z,33.69
2024-04-12T12:07:28.375Z,35.66
2024-04-12T12:09:55.650Z,34.51
2024-04-12T12:12:28.180Z,35.69
2024-04-12T12:14:55.612Z,36.85
2024-04-12T12:17:22.631Z,37.25
2024-04-12T12:19:51.370Z,36.98
2024-04-12T12:22:19.836Z,39.79
2024-04-12T12:24:47.080Z,40.81
2024-04-12T12:27:14.291Z,39.09
2024-04-12T12:29:43.579Z,40.42
2024-04-12T12:32:10.747Z,41.48
2024-04-12T12:34:44.635Z,41.44
2024-04-12T12:37:11.620Z,45.45
2024-04-12T12:39:38.676Z,46.51
2024-04-12T12:42:06.583Z,41.94
2024-04-12T12:44:33.548Z,44.29
2024-04-12T12:47:00.615Z,45.48
2024-04-12T12:49:27.618Z,36.93
2024-04-12T12:51:54.601Z,41.26
2024-04-12T12:54:21.559Z,41.12
2024-04-12T12:56:48.692Z,40.16
2024-04-12T12:59:15.679Z,35.75
2024-04-12T13:01:43.002Z,33.81
2024-04-12T13:04:10.073Z,30.28
2024-04-12T13:06:37.088Z,30.43
2024-04-12T13:09:09.760Z,32.31
2024-04-12T13:11:37.643Z,31.41
2024-04-12T13:14:10.678Z,33.48
2024-04-12T13:16:42.974Z,34.72
2024-04-12T13:19:16.863Z,33.10
2024-04-12T13:21:44.028Z,31.71
2024-04-12T13:24:14.909Z,30.82
2024-04-12T13:26:51.578Z,31.88
2024-04-12T13:29:19.139Z,33.35
2024-04-12T13:31:51.420Z,36.01
2024-04-12T13:34:19.806Z,30.21
2024-04-12T13:36:48.816Z,32.48
2024-04-12T13:39:16.270Z,31.58
2024-04-12T13:41:46.329Z,39.11
2024-04-12T13:44:26.317Z,41.07
2024-04-12T13:47:12.493Z,41.25
2024-04-12T13:49:58.175Z,37.38
2024-04-12T13:52:26.145Z,37.29
2024-04-12T13:54:53.074Z,41.76
2024-04-12T13:57:25.507Z,33.73
2024-04-12T13:59:53.195Z,30.45
2024-04-12T14:02:20.268Z,28.95
2024-04-12T14:04:47.616Z,28.27
2024-04-12T14:07:16.141Z,28.15
2024-04-12T14:09:43.142Z,30.23
2024-04-12T14:12:11.448Z,28.58
2024-04-12T14:14:38.465Z,28.58
2024-04-12T14:17:06.692Z,28.86
2024-04-12T14:19:33.852Z,27.51
2024-04-12T14:22:00.830Z,27.26
2024-04-12T14:24:46.813Z,28.07
2024-04-12T14:27:14.100Z,28.90
2024-04-12T14:29:41.279Z,29.57
2024-04-12T14:32:08.541Z,28.55
2024-04-12T14:34:36.226Z,33.49
2024-04-12T14:37:04.275Z,34.12
2024-04-12T14:39:31.301Z,34.55
2024-04-12T14:41:58.236Z,34.74
2024-04-12T14:44:25.277Z,35.68
2024-04-12T14:46:52.276Z,32.54
2024-04-12T14:49:19.225Z,33.18
2024-04-12T14:51:46.185Z,34.01
2024-04-12T14:54:14.841Z,34.62
2024-04-12T14:56:43.938Z,35.02
2024-04-12T14:59:12.720Z,35.64
2024-04-12T15:01:39.800Z,35.32
2024-04-12T15:04:25.503Z,35.10
2024-04-12T15:07:11.155Z,34.47
2024-04-12T15:09:56.557Z,34.15
2024-04-12T15:12:42.152Z,34.00
2024-04-12T15:15:27.736Z,35.15
2024-04-12T15:18:13.378Z,36.99
2024-04-12T15:20:58.916Z,36.51
2024-04-12T15:23:44.563Z,37.02
2024-04-12T15:26:30.613Z,36.53
2024-04-12T15:29:16.126Z,37.30
2024-04-12T15:32:01.706Z,35.99
2024-04-12T15:34:47.420Z,33.16
2024-04-12T15:37:33.103Z,37.38
2024-04-12T15:40:18.789Z,35.04
2024-04-12T15:43:04.287Z,35.30
2024-04-12T15:45:49.778Z,36.07
2024-04-12T15:48:16.779Z,36.29
2024-04-12T15:50:50.840Z,34.91
2024-04-12T15:53:24.567Z,31.74
2024-04-12T15:55:54.316Z,29.51
2024-04-12T15:58:46.083Z,28.97
2024-04-12T16:01:31.882Z,28.15
2024-04-12T16:04:21.168Z,28.34
2024-04-12T16:07:06.737Z,28.33
2024-04-12T16:09:52.935Z,28.47
2024-04-12T16:12:20.201Z,28.37
2024-04-12T16:14:47.220Z,27.83
2024-04-12T16:17:15.942Z,27.18
2024-04-12T16:19:43.032Z,26.49
2024-04-12T16:22:10.221Z,26.38
2024-04-12T16:24:37.163Z,25.51
2024-04-12T16:27:05.889Z,24.99
2024-04-12T16:29:32.864Z,24.76
2024-04-12T16:31:59.762Z,23.97
2024-04-12T16:34:26.807Z,23.81
2024-04-12T16:36:53.768Z,23.46
2024-04-12T16:39:20.845Z,23.77
2024-04-12T16:41:50.888Z,23.28
2024-04-12T16:44:17.919Z,22.81
2024-04-12T16:46:45.262Z,22.44
2024-04-12T16:49:12.531Z,22.31
2024-04-12T16:51:40.649Z,22.29
2024-04-12T16:54:07.673Z,22.11
2024-04-12T16:56:35.586Z,22.04
2024-04-12T16:59:05.831Z,21.83
2024-04-12T17:01:33.451Z,21.70
2024-04-12T17:04:01.551Z,21.70
2024-04-12T17:06:29.966Z,21.48
2024-04-12T17:08:57.058Z,21.41
2024-04-12T17:11:27.315Z,21.18
2024-04-12T17:13:54.325Z,20.96
2024-04-12T17:16:21.763Z,20.97
2024-04-12T17:18:49.088Z,20.85
2024-04-12T17:21:16.213Z,20.58
2024-04-12T17:23:43.192Z,20.49
2024-04-12T17:26:11.499Z,20.28
2024-04-12T17:28:39.354Z,20.14
2024-04-12T17:31:09.932Z,19.97
2024-04-12T17:33:36.930Z,19.86
2024-04-12T17:36:07.471Z,19.83
2024-04-12T17:38:36.525Z,19.66
2024-04-12T17:41:03.935Z,19.32
2024-04-12T17:43:30.839Z,19.15
2024-04-12T17:45:58.265Z,18.87
2024-04-12T17:48:25.591Z,18.70
2024-04-12T17:50:53.108Z,18.52
2024-04-12T17:53:20.050Z,18.27
2024-04-12T17:55:46.955Z,18.12
2024-04-12T17:58:14.000Z,17.83
2024-04-12T18:00:40.926Z,17.88
2024-04-12T18:03:09.667Z,17.79
2024-04-12T18:05:38.701Z,17.69
2024-04-12T18:08:06.148Z,17.60
2024-04-12T18:10:33.050Z,17.49
2024-04-12T18:12:59.970Z,17.28
2024-04-12T18:15:29.015Z,17.21
2024-04-12T18:17:56.099Z,17.13
2024-04-12T18:20:25.638Z,17.04
2024-04-12T18:22:53.643Z,17.01
2024-04-12T18:25:20.748Z,16.88
2024-04-12T18:27:47.833Z,16.68
2024-04-12T18:30:14.802Z,16.60
2024-04-12T18:32:42.554Z,16.55
2024-04-12T18:35:13.995Z,16.22
2024-04-12T18:38:01.294Z,16.36
2024-04-12T18:40:46.959Z,16.27
2024-04-12T18:43:32.580Z,16.08
2024-04-12T18:46:02.324Z,16.11
2024-04-12T18:48:29.343Z,15.95
2024-04-12T18:50:56.617Z,15.89
2024-04-12T18:53:24.794Z,15.76
2024-04-12T18:55:55.033Z,15.81
2024-04-12T18:58:21.968Z,15.76
2024-04-12T19:00:49.667Z,15.57
2024-04-12T19:03:16.910Z,15.43
2024-04-12T19:05:45.591Z,15.41
2024-04-12T19:08:12.587Z,15.42
2024-04-12T19:10:41.012Z,15.22
2024-04-12T19:13:08.772Z,15.23
2024-04-12T19:15:41.971Z,15.12
2024-04-12T19:18:10.840Z,15.15
2024-04-12T19:20:44.230Z,15.03
2024-04-12T19:23:11.258Z,14.97
2024-04-12T19:25:38.202Z,14.87
2024-04-12T19:28:05.967Z,14.89
2024-04-12T19:30:33.025Z,14.90
2024-04-12T19:33:00.686Z,14.79
2024-04-12T19:35:27.777Z,14.79
2024-04-12T19:37:54.896Z,14.65
2024-04-12T19:40:21.835Z,14.58
2024-04-12T19:42:48.746Z,14.52
2024-04-12T19:45:15.846Z,14.46
2024-04-12T19:47:42.851Z,14.55
2024-04-12T19:50:10.797Z,14.52
2024-04-12T19:52:42.286Z,14.45
2024-04-12T19:55:12.384Z,14.48
2024-04-12T19:57:39.354Z,14.39
2024-04-12T20:00:07.621Z,14.40
2024-04-12T20:02:34.881Z,14.38
2024-04-12T20:05:01.823Z,14.31
2024-04-12T20:07:29.432Z,14.32
2024-04-12T20:09:56.364Z,14.23
2024-04-12T20:12:23.379Z,14.23
2024-04-12T20:14:53.968Z,14.17
2024-04-12T20:17:22.733Z,14.09
2024-04-12T20:19:53.333Z,13.95
2024-04-12T20:22:23.214Z,13.98
2024-04-12T20:24:50.245Z,13.92
2024-04-12T20:27:20.543Z,13.93
2024-04-12T20:29:58.702Z,13.82
2024-04-12T20:32:25.916Z,13.88
2024-04-12T20:35:11.819Z,13.78
2024-04-12T20:37:38.994Z,13.68
2024-04-12T20:40:06.492Z,13.62
2024-04-12T20:42:33.491Z,13.62
2024-04-12T20:45:00.656Z,13.48
2024-04-12T20:47:30.783Z,13.51
2024-04-12T20:49:57.742Z,13.43
2024-04-12T20:52:24.887Z,13.46
2024-04-12T20:54:51.868Z,13.37
2024-04-12T20:57:19.100Z,13.35
2024-04-12T20:59:52.368Z,13.27
2024-04-12T21:02:19.547Z,13.20
2024-04-12T21:04:50.967Z,13.13
2024-04-12T21:07:18.199Z,13.09
2024-04-12T21:09:45.096Z,13.07
2024-04-12T21:12:12.050Z,13.02
2024-04-12T21:14:41.173Z,12.87
2024-04-12T21:17:09.578Z,12.95
2024-04-12T21:19:36.544Z,12.87
2024-04-12T21:22:03.456Z,12.94
2024-04-12T21:24:31.349Z,12.78
2024-04-12T21:26:58.353Z,12.74
2024-04-12T21:29:25.424Z,12.83
2024-04-12T21:31:52.337Z,12.77
2024-04-12T21:34:19.744Z,12.64
2024-04-12T21:36:46.684Z,12.68
2024-04-12T21:39:14.588Z,12.66
2024-04-12T21:41:41.591Z,12.68
2024-04-12T21:44:09.712Z,12.68
2024-04-12T21:46:38.799Z,12.63
2024-04-12T21:49:05.795Z,12.61
2024-04-12T21:51:32.865Z,12.56
2024-04-12T21:54:01.436Z,12.54
2024-04-12T21:56:28.709Z,12.48
2024-04-12T21:58:55.671Z,12.45
2024-04-12T22:01:22.598Z,12.33
2024-04-12T22:03:49.661Z,12.37
2024-04-12T22:06:17.005Z,12.35
2024-04-12T22:08:44.277Z,12.36
2024-04-12T22:11:11.417Z,12.32
2024-04-12T22:13:38.330Z,12.28
2024-04-12T22:16:05.952Z,12.27
2024-04-12T22:18:34.386Z,12.30
2024-04-12T22:21:06.970Z,12.19
2024-04-12T22:23:36.789Z,12.19
2024-04-12T22:26:07.329Z,12.05
2024-04-12T22:28:34.873Z,12.08
2024-04-12T22:31:04.184Z,12.02
2024-04-12T22:33:31.209Z,12.06
2024-04-12T22:35:58.241Z,12.10
2024-04-12T22:38:25.187Z,12.04
2024-04-12T22:40:56.556Z,11.95
2024-04-12T22:43:23.526Z,11.98
2024-04-12T22:45:50.453Z,12.04
2024-04-12T22:48:17.413Z,11.91
2024-04-12T22:50:44.363Z,11.87
2024-04-12T22:53:11.306Z,11.82
2024-04-12T22:55:38.254Z,11.92
2024-04-12T22:58:07.864Z,11.94
2024-04-12T23:00:39.146Z,11.96
2024-04-12T23:03:06.185Z,11.87
2024-04-12T23:05:33.461Z,11.80
2024-04-12T23:08:03.134Z,11.97
2024-04-12T23:10:30.315Z,11.95
2024-04-12T23:12:57.270Z,12.06
2024-04-12T23:15:24.346Z,12.13
2024-04-12T23:17:52.567Z,11.99
2024-04-12T23:20:19.631Z,11.95
2024-04-12T23:22:46.657Z,11.87
2024-04-12T23:25:13.581Z,11.84
2024-04-12T23:27:40.486Z,11.83
2024-04-12T23:30:07.848Z,11.80
2024-04-12T23:32:34.797Z,11.87
2024-04-12T23:35:02.767Z,11.89
2024-04-12T23:37:29.724Z,11.81
2024-04-12T23:39:56.648Z,11.76
2024-04-12T23:42:23.624Z,11.72
2024-04-12T23:44:50.557Z,11.67
2024-04-12T23:47:17.568Z,11.58
2024-04-12T23:49:44.496Z,11.58
2024-04-12T23:52:11.402Z,11.65
2024-04-12T23:54:38.327Z,11.66
2024-04-12T23:57:05.371Z,11.63
2024-04-12T23:59:32.355Z,11.49
